Piper — WDE6779 — position and weather

sailwx.info

Track history (hours):
 
Tides and Currents Weather Stations Pressure Air Temp Water Temp Dewpoint Dewpoint Depression Visibility Wind Speed Wind Dir Waves Ship Positions

Piper

Owner: ADS MARINE, LLC, MORGAN CITY, LA. More information available from US FCC via Universal Licensing System and Coast Guard Vessel Documentation Center.

Last reported at 2017-May-23 06:05 UTC. Time now 2017-May-25 08:47 UTC.
Position N 29°34' W 092°18'.

Length 40 m; draft 3 m.

Type: Cargo ship. MMSI: 367384720.

Date/timePositionNaut miles runAvg speedWind from/ knotsBaromVisibWave heightAir tempDewpointWater temp
2017-May-23 06:05N 29°34' W 092°18'1 7.0
2017-May-23 05:59N 29°34' W 092°18'3 7.0
2017-May-23 05:29N 29°37' W 092°16'4 7.7
2017-May-23 05:00N 29°41' W 092°15'4 7.6
2017-May-23 04:30N 29°44' W 092°14'3 7.0
2017-May-23 04:00N 29°47' W 092°10'1 1.6
2017-May-23 03:30N 29°47' W 092°11'0 0.0
2017-May-23 03:00N 29°47' W 092°11'0 0.0
2017-May-23 02:30N 29°47' W 092°11'0 0.0
2017-May-23 02:00N 29°47' W 092°11'0 0.3
2017-May-23 01:30N 29°47' W 092°11'0 0.0
2017-May-23 01:00N 29°47' W 092°11'0 0.0
2017-May-23 00:30N 29°47' W 092°11'0 0.0
2017-May-23 00:00N 29°47' W 092°11'0 0.0
2017-May-22 23:30N 29°47' W 092°11'1 1.6
2017-May-22 23:00N 29°47' W 092°10'0 0.0
2017-May-22 22:30N 29°47' W 092°10'0 0.0
2017-May-22 22:00N 29°47' W 092°10'0 0.0
2017-May-22 21:30N 29°47' W 092°10'0 0.0
2017-May-22 21:00N 29°47' W 092°10'0 0.0
2017-May-22 20:30N 29°47' W 092°10'0 0.0
2017-May-22 20:00N 29°47' W 092°10'0 0.0
2017-May-22 19:30N 29°47' W 092°10'0 0.0
2017-May-22 19:00N 29°47' W 092°10'0 0.0
2017-May-22 18:30N 29°47' W 092°10'0 0.0
2017-May-22 18:00N 29°47' W 092°10'0 0.0
2017-May-22 17:30N 29°47' W 092°10'0 0.0
2017-May-22 17:00N 29°47' W 092°10'0 0.0
2017-May-22 16:30N 29°47' W 092°10'0 0.0
2017-May-22 16:00N 29°47' W 092°10'0 0.0
2017-May-22 15:30N 29°47' W 092°10'0 0.0
2017-May-22 15:00N 29°47' W 092°10'0 0.2
2017-May-22 14:00N 29°47' W 092°10'1 1.5
2017-May-22 13:30N 29°47' W 092°11'0 0.0
2017-May-22 13:00N 29°47' W 092°11'2 4.0
2017-May-22 12:30N 29°45' W 092°12'3 6.5
2017-May-22 12:00N 29°43' W 092°15'3 6.7
2017-May-22 11:30N 29°39' W 092°16'3 6.5
2017-May-22 11:00N 29°36' W 092°17'  
Track history (hours):
 
Tides and Currents Weather Stations Pressure Air Temp Water Temp Dewpoint Dewpoint Depression Visibility Wind Speed Wind Dir Waves Ship Positions

Piper

Owner: ADS MARINE, LLC, MORGAN CITY, LA. More information available from US FCC via Universal Licensing System and Coast Guard Vessel Documentation Center.

Last reported at 2017-May-23 06:05 UTC. Time now 2017-May-25 08:47 UTC.
Position N 29°34' W 092°18'.

Length 40 m; draft 3 m.

Type: Cargo ship. MMSI: 367384720.

Date/timePositionNaut miles runAvg speedWind from/ knotsBaromVisibWave heightAir tempDewpointWater temp
2017-May-23 06:05N 29°34' W 092°18'1 7.0
2017-May-23 05:59N 29°34' W 092°18'3 7.0
2017-May-23 05:29N 29°37' W 092°16'4 7.7
2017-May-23 05:00N 29°41' W 092°15'4 7.6
2017-May-23 04:30N 29°44' W 092°14'3 7.0
2017-May-23 04:00N 29°47' W 092°10'1 1.6
2017-May-23 03:30N 29°47' W 092°11'0 0.0
2017-May-23 03:00N 29°47' W 092°11'0 0.0
2017-May-23 02:30N 29°47' W 092°11'0 0.0
2017-May-23 02:00N 29°47' W 092°11'0 0.3
2017-May-23 01:30N 29°47' W 092°11'0 0.0
2017-May-23 01:00N 29°47' W 092°11'0 0.0
2017-May-23 00:30N 29°47' W 092°11'0 0.0
2017-May-23 00:00N 29°47' W 092°11'0 0.0
2017-May-22 23:30N 29°47' W 092°11'1 1.6
2017-May-22 23:00N 29°47' W 092°10'0 0.0
2017-May-22 22:30N 29°47' W 092°10'0 0.0
2017-May-22 22:00N 29°47' W 092°10'0 0.0
2017-May-22 21:30N 29°47' W 092°10'0 0.0
2017-May-22 21:00N 29°47' W 092°10'0 0.0
2017-May-22 20:30N 29°47' W 092°10'0 0.0
2017-May-22 20:00N 29°47' W 092°10'0 0.0
2017-May-22 19:30N 29°47' W 092°10'0 0.0
2017-May-22 19:00N 29°47' W 092°10'0 0.0
2017-May-22 18:30N 29°47' W 092°10'0 0.0
2017-May-22 18:00N 29°47' W 092°10'0 0.0
2017-May-22 17:30N 29°47' W 092°10'0 0.0
2017-May-22 17:00N 29°47' W 092°10'0 0.0
2017-May-22 16:30N 29°47' W 092°10'0 0.0
2017-May-22 16:00N 29°47' W 092°10'0 0.0
2017-May-22 15:30N 29°47' W 092°10'0 0.0
2017-May-22 15:00N 29°47' W 092°10'0 0.2
2017-May-22 14:00N 29°47' W 092°10'1 1.5
2017-May-22 13:30N 29°47' W 092°11'0 0.0
2017-May-22 13:00N 29°47' W 092°11'2 4.0
2017-May-22 12:30N 29°45' W 092°12'3 6.5
2017-May-22 12:00N 29°43' W 092°15'3 6.7
2017-May-22 11:30N 29°39' W 092°16'3 6.5
2017-May-22 11:00N 29°36' W 092°17'  

Dump ship's entire track history